Share

Norfolk, NE

West Central - Norfolk (KNENORFO2) Elev 1644 ft | 42.04 °N, 97.45 °W | Change Station

Current weather conditions updated 4 minutes ago

Clear
Clear
51.6 °F
Feels Like 51.6 °F
N
5.0
Wind Variable Wind from SSW
Gusts 15.0 mph
Sunrise 6:44 AM
Sunset 8:14 PM
Moon Waning Gibbous

Today is forecast to be Much Warmer than yesterday.

Pressure 30.20 in
Visibility 10.0 miles
Clouds Clear
Dew Point 37 °F
Humidity 58%
Rainfall 0.00 in
Snow Depth Not available.
UV 4 out of 16
Pollen 10.90 out of 12
Air Quality Not available.
Flu Activity Sporadic
METAR KOFK 181456Z AUTO 18017KT 10SM CLR 12/02 A3017 RMK AO2 SLP225 T01170022 56005

More Conditions Fewer Conditions

Pressure 30.20 in
Visibility 10.0 miles
Clouds Clear
Dew Point 37 °F
Humidity 58%
Rainfall 0.00 in
Snow Depth Not available.
UV 4 out of 16
Pollen 10.90 out of 12
Air Quality Not available.
Flu Activity Sporadic
METAR KOFK 181456Z AUTO 18017KT 10SM CLR 12/02 A3017 RMK AO2 SLP225 T01170022 56005

More Conditions Fewer Conditions

10-Day Forecast

Almanac

Astronomy

Apr. 18, 2014 Rise Set
Actual Time 6:44 AM CDT 8:14 PM CDT
Civil Twilight 6:15 AM CDT 8:43 PM CDT
Nautical Twilight 5:39 AM CDT 9:19 PM CDT
Astronomical Twilight 5:02 AM CDT 9:56 PM CDT
Moon No Moon Rise 9:05 AM CDT
Length of Visible Light 14h 28m
Length of Day
13h 29m
Tomorrow will be 2m 40s longer.
Waning Gibbous, 87% of the Moon is Illuminated
Today
Waning Gibbous
Apr 22
Last Quarter
Apr 29
New
May 6
First Quarter
May 14
Full

Today's Extremes

State Highs State Lows

Community

  • What's for Lunch?
    What's for Lunch?
  • SUNRISE THROUGH THE TREES.
    SUNRISE THROUGH THE TREES.
  • Dog Wood Blossoms
    Dog Wood Blossoms
  • Morning Light
    Morning Light
  • New Day
    New Day

WunderPhotos

Upload Photos

1,702,383 photos uploaded!

Nearby

Snow Depth

Station Depth Elevation
No new snow has been reported.

Coastal Water Temperatures

Place Temperature
No Stations Reporting

Earthquake Activity

City Distance Mag. Time & Date
No recent earthquake activity has been reported nearby.
Minimum magnitude displayed is 2.5.

Nearby Weather Stations

Station Location Temp. Dew Point Humidity Wind Precip. Elev Updated Type
West Central - Norfolk, Norfolk, NE 51.6 °F 37 °F 58% SSW  at  5.0 mph 0.00 in / hr 1644 ft 10:00 AM CDT Normal
1 mile South of Wayne, Wayne, NE 53.2 °F 34 °F 49% South  at  16.8 mph 0.00 in / hr 1434 ft 10:04 AM CDT Rapid Fire

Show More Stations Show Fewer Stations

What do you think?

We're not finished. Please let us know what you like, what you don't like, and what you are still missing.